sensor_id;sensor_type;location;lat;lon;timestamp;pressure;altitude;pressure_sealevel;temperature;humidity
39075;BME280;24826;52.070;20.970;2023-05-09T00:01:42;62100.63;;;-147.04;38.33
39075;BME280;24826;52.070;20.970;2023-05-09T00:04:28;62086.72;;;-147.04;38.46
39075;BME280;24826;52.070;20.970;2023-05-09T00:07:13;62056.88;;;-147.04;38.37
39075;BME280;24826;52.070;20.970;2023-05-09T00:09:57;62084.72;;;-147.04;38.38
39075;BME280;24826;52.070;20.970;2023-05-09T00:12:41;62062.84;;;-147.04;38.25
39075;BME280;24826;52.070;20.970;2023-05-09T00:15:27;62019.09;;;-147.04;38.51
39075;BME280;24826;52.070;20.970;2023-05-09T00:18:12;62088.69;;;-147.04;38.41
39075;BME280;24826;52.070;20.970;2023-05-09T00:20:57;62072.78;;;-147.04;38.35
39075;BME280;24826;52.070;20.970;2023-05-09T00:23:41;62044.94;;;-147.04;38.39
39075;BME280;24826;52.070;20.970;2023-05-09T00:26:26;62060.84;;;-147.04;38.37
39075;BME280;24826;52.070;20.970;2023-05-09T00:29:10;62088.69;;;-147.04;38.46
39075;BME280;24826;52.070;20.970;2023-05-09T00:31:55;62092.69;;;-147.04;38.48
39075;BME280;24826;52.070;20.970;2023-05-09T00:34:39;62068.81;;;-147.04;38.39
39075;BME280;24826;52.070;20.970;2023-05-09T00:37:24;62084.72;;;-147.04;38.33
39075;BME280;24826;52.070;20.970;2023-05-09T00:40:09;62056.88;;;-147.04;38.35
39075;BME280;24826;52.070;20.970;2023-05-09T00:42:54;62060.84;;;-147.04;38.50
39075;BME280;24826;52.070;20.970;2023-05-09T00:45:42;62092.69;;;-147.04;38.43
39075;BME280;24826;52.070;20.970;2023-05-09T00:48:27;62088.69;;;-147.04;38.54
39075;BME280;24826;52.070;20.970;2023-05-09T00:51:11;62100.63;;;-147.04;38.34
39075;BME280;24826;52.070;20.970;2023-05-09T00:53:56;62046.94;;;-147.04;38.39
39075;BME280;24826;52.070;20.970;2023-05-09T00:56:40;62086.72;;;-147.04;38.33
39075;BME280;24826;52.070;20.970;2023-05-09T00:59:26;62082.75;;;-147.04;38.42
39075;BME280;24826;52.070;20.970;2023-05-09T01:02:10;62052.91;;;-147.04;38.38
39075;BME280;24826;52.070;20.970;2023-05-09T01:04:55;62064.84;;;-147.04;38.36
39075;BME280;24826;52.070;20.970;2023-05-09T01:07:49;62064.84;;;-147.04;38.38
39075;BME280;24826;52.070;20.970;2023-05-09T01:10:57;62124.50;;;-147.04;38.32
39075;BME280;24826;52.070;20.970;2023-05-09T01:14:07;62078.75;;;-147.04;38.40
39075;BME280;24826;52.070;20.970;2023-05-09T01:17:01;62092.69;;;-147.04;38.29
39075;BME280;24826;52.070;20.970;2023-05-09T01:19:58;62060.84;;;-147.04;38.43
39075;BME280;24826;52.070;20.970;2023-05-09T01:22:48;62072.78;;;-147.04;38.33
39075;BME280;24826;52.070;20.970;2023-05-09T01:25:47;62088.69;;;-147.04;38.47
39075;BME280;24826;52.070;20.970;2023-05-09T01:31:27;62056.88;;;-147.04;38.30
39075;BME280;24826;52.070;20.970;2023-05-09T01:34:14;62052.91;;;-147.04;38.33
39075;BME280;24826;52.070;20.970;2023-05-09T01:37:03;62104.63;;;-147.04;38.43
39075;BME280;24826;52.070;20.970;2023-05-09T01:39:52;62100.63;;;-147.04;38.33
39075;BME280;24826;52.070;20.970;2023-05-09T01:42:57;62056.88;;;-147.04;38.35
39075;BME280;24826;52.070;20.970;2023-05-09T01:45:44;62054.91;;;-147.04;38.31
39075;BME280;24826;52.070;20.970;2023-05-09T01:48:29;62076.78;;;-147.04;38.25
39075;BME280;24826;52.070;20.970;2023-05-09T01:51:15;62054.91;;;-147.04;38.30
39075;BME280;24826;52.070;20.970;2023-05-09T01:54:00;62060.84;;;-147.04;38.26
39075;BME280;24826;52.070;20.970;2023-05-09T01:56:45;62080.75;;;-147.04;38.22
39075;BME280;24826;52.070;20.970;2023-05-09T01:59:32;62062.84;;;-147.04;38.27
39075;BME280;24826;52.070;20.970;2023-05-09T02:02:18;62080.75;;;-147.04;38.25
39075;BME280;24826;52.070;20.970;2023-05-09T02:05:02;62058.88;;;-147.04;38.27
39075;BME280;24826;52.070;20.970;2023-05-09T02:07:48;62096.66;;;-147.04;38.27
39075;BME280;24826;52.070;20.970;2023-05-09T02:10:34;62050.91;;;-147.04;38.29
39075;BME280;24826;52.070;20.970;2023-05-09T02:13:18;62040.97;;;-147.04;38.25
39075;BME280;24826;52.070;20.970;2023-05-09T02:16:04;62062.84;;;-147.04;38.13
39075;BME280;24826;52.070;20.970;2023-05-09T02:18:49;62068.81;;;-147.04;38.36
39075;BME280;24826;52.070;20.970;2023-05-09T02:21:33;62029.03;;;-147.04;38.21
39075;BME280;24826;52.070;20.970;2023-05-09T02:24:18;62064.84;;;-147.04;38.33
39075;BME280;24826;52.070;20.970;2023-05-09T02:27:03;62078.75;;;-147.04;38.22
39075;BME280;24826;52.070;20.970;2023-05-09T02:29:50;62066.81;;;-147.04;38.27
39075;BME280;24826;52.070;20.970;2023-05-09T02:32:38;62076.78;;;-147.04;38.08
39075;BME280;24826;52.070;20.970;2023-05-09T02:35:26;62070.81;;;-147.04;38.29
39075;BME280;24826;52.070;20.970;2023-05-09T02:38:12;62046.94;;;-147.04;38.30
39075;BME280;24826;52.070;20.970;2023-05-09T02:40:56;62048.94;;;-147.04;38.17
39075;BME280;24826;52.070;20.970;2023-05-09T02:43:41;62058.88;;;-147.04;38.29
39075;BME280;24826;52.070;20.970;2023-05-09T02:46:25;62021.09;;;-147.04;38.30
39075;BME280;24826;52.070;20.970;2023-05-09T02:49:09;62064.84;;;-147.04;38.32
39075;BME280;24826;52.070;20.970;2023-05-09T02:51:54;62040.97;;;-147.04;38.27
39075;BME280;24826;52.070;20.970;2023-05-09T02:54:38;62009.16;;;-147.04;38.21
39075;BME280;24826;52.070;20.970;2023-05-09T02:57:23;62046.94;;;-147.04;38.29
39075;BME280;24826;52.070;20.970;2023-05-09T03:00:07;62058.88;;;-147.04;38.33
39075;BME280;24826;52.070;20.970;2023-05-09T03:02:55;62044.94;;;-147.04;38.17
39075;BME280;24826;52.070;20.970;2023-05-09T03:05:39;62031.03;;;-147.04;38.34
39075;BME280;24826;52.070;20.970;2023-05-09T03:08:24;62048.94;;;-147.04;38.20
39075;BME280;24826;52.070;20.970;2023-05-09T03:11:08;62015.13;;;-147.04;38.16
39075;BME280;24826;52.070;20.970;2023-05-09T03:13:53;62060.84;;;-147.04;38.19
39075;BME280;24826;52.070;20.970;2023-05-09T03:16:37;62052.91;;;-147.04;38.27
39075;BME280;24826;52.070;20.970;2023-05-09T03:19:22;62054.91;;;-147.04;38.19
39075;BME280;24826;52.070;20.970;2023-05-09T03:22:06;62056.88;;;-147.04;38.14
39075;BME280;24826;52.070;20.970;2023-05-09T03:24:50;62042.97;;;-147.04;38.14
39075;BME280;24826;52.070;20.970;2023-05-09T03:27:34;62070.81;;;-147.04;38.22
39075;BME280;24826;52.070;20.970;2023-05-09T03:30:19;62044.94;;;-147.04;38.24
39075;BME280;24826;52.070;20.970;2023-05-09T03:33:03;62064.84;;;-147.04;38.17
39075;BME280;24826;52.070;20.970;2023-05-09T03:35:48;62072.78;;;-147.04;38.11
39075;BME280;24826;52.070;20.970;2023-05-09T03:38:32;62054.91;;;-147.04;38.10
39075;BME280;24826;52.070;20.970;2023-05-09T03:41:17;62038.97;;;-147.04;38.36
39075;BME280;24826;52.070;20.970;2023-05-09T03:44:03;62029.03;;;-147.04;38.13
39075;BME280;24826;52.070;20.970;2023-05-09T03:46:47;62068.81;;;-147.04;38.12
39075;BME280;24826;52.070;20.970;2023-05-09T03:49:31;62092.69;;;-147.04;38.11
39075;BME280;24826;52.070;20.970;2023-05-09T03:52:16;62042.97;;;-147.04;38.17
39075;BME280;24826;52.070;20.970;2023-05-09T03:55:00;62025.06;;;-147.04;38.12
39075;BME280;24826;52.070;20.970;2023-05-09T03:57:44;62070.81;;;-147.04;38.14
39075;BME280;24826;52.070;20.970;2023-05-09T04:00:28;62098.66;;;-147.04;38.19
39075;BME280;24826;52.070;20.970;2023-05-09T04:03:13;62056.88;;;-147.04;38.14
39075;BME280;24826;52.070;20.970;2023-05-09T04:05:57;62042.97;;;-147.04;38.12
39075;BME280;24826;52.070;20.970;2023-05-09T04:08:42;62027.06;;;-147.04;38.04
39075;BME280;24826;52.070;20.970;2023-05-09T04:11:26;62048.94;;;-147.04;38.09
39075;BME280;24826;52.070;20.970;2023-05-09T04:14:11;62037.00;;;-147.04;38.17
39075;BME280;24826;52.070;20.970;2023-05-09T04:16:55;62048.94;;;-147.04;37.98
39075;BME280;24826;52.070;20.970;2023-05-09T04:19:39;62033.00;;;-147.04;37.93
39075;BME280;24826;52.070;20.970;2023-05-09T04:22:23;62027.06;;;-147.04;38.13
39075;BME280;24826;52.070;20.970;2023-05-09T04:25:07;62048.94;;;-147.04;38.12
39075;BME280;24826;52.070;20.970;2023-05-09T04:27:55;62021.09;;;-147.04;38.12
39075;BME280;24826;52.070;20.970;2023-05-09T04:30:40;62025.06;;;-147.04;38.29
39075;BME280;24826;52.070;20.970;2023-05-09T04:33:24;62021.09;;;-147.04;38.18
39075;BME280;24826;52.070;20.970;2023-05-09T04:36:09;62021.09;;;-147.04;38.29
39075;BME280;24826;52.070;20.970;2023-05-09T04:38:53;62037.00;;;-147.04;38.30
39075;BME280;24826;52.070;20.970;2023-05-09T04:41:38;62017.09;;;-147.04;38.38
39075;BME280;24826;52.070;20.970;2023-05-09T04:44:22;62068.81;;;-147.04;38.42
39075;BME280;24826;52.070;20.970;2023-05-09T04:47:07;62044.94;;;-147.04;38.35
39075;BME280;24826;52.070;20.970;2023-05-09T04:49:52;62094.66;;;-147.04;38.56
39075;BME280;24826;52.070;20.970;2023-05-09T04:52:36;62033.00;;;-147.04;38.83
39075;BME280;24826;52.070;20.970;2023-05-09T04:55:21;62044.94;;;-147.04;37.47
39075;BME280;24826;52.070;20.970;2023-05-09T04:58:05;62048.94;;;-147.04;38.40
39075;BME280;24826;52.070;20.970;2023-05-09T05:00:50;62044.94;;;-147.04;38.37
39075;BME280;24826;52.070;20.970;2023-05-09T05:03:34;62048.94;;;-147.04;38.67
39075;BME280;24826;52.070;20.970;2023-05-09T05:06:18;62013.13;;;-147.04;38.62
39075;BME280;24826;52.070;20.970;2023-05-09T05:09:03;61999.22;;;-147.04;38.75
39075;BME280;24826;52.070;20.970;2023-05-09T05:11:48;62007.16;;;-147.04;38.84
39075;BME280;24826;52.070;20.970;2023-05-09T05:14:32;62021.09;;;-147.04;38.73
39075;BME280;24826;52.070;20.970;2023-05-09T05:17:16;62038.97;;;-147.04;38.86
39075;BME280;24826;52.070;20.970;2023-05-09T05:20:01;62038.97;;;-147.04;38.89
39075;BME280;24826;52.070;20.970;2023-05-09T05:22:49;62052.91;;;-147.04;38.92
39075;BME280;24826;52.070;20.970;2023-05-09T05:25:34;62040.97;;;-147.04;39.01
39075;BME280;24826;52.070;20.970;2023-05-09T05:28:18;62033.00;;;-147.04;38.96
39075;BME280;24826;52.070;20.970;2023-05-09T05:31:03;62040.97;;;-147.04;38.93
39075;BME280;24826;52.070;20.970;2023-05-09T05:33:47;62025.06;;;-147.04;39.00
39075;BME280;24826;52.070;20.970;2023-05-09T05:36:32;62064.84;;;-147.04;38.70
39075;BME280;24826;52.070;20.970;2023-05-09T05:39:16;62042.97;;;-147.04;39.06
39075;BME280;24826;52.070;20.970;2023-05-09T05:42:01;62072.78;;;-147.04;38.87
39075;BME280;24826;52.070;20.970;2023-05-09T05:44:45;62027.06;;;-147.04;38.86
39075;BME280;24826;52.070;20.970;2023-05-09T05:47:31;62013.13;;;-147.04;38.96
39075;BME280;24826;52.070;20.970;2023-05-09T05:50:16;62084.72;;;-147.04;38.90
39075;BME280;24826;52.070;20.970;2023-05-09T05:53:01;62037.00;;;-147.04;38.92
39075;BME280;24826;52.070;20.970;2023-05-09T05:55:45;62042.97;;;-147.04;38.94
39075;BME280;24826;52.070;20.970;2023-05-09T05:58:30;62068.81;;;-147.04;38.96
39075;BME280;24826;52.070;20.970;2023-05-09T06:01:14;62074.78;;;-147.04;38.97
39075;BME280;24826;52.070;20.970;2023-05-09T06:03:59;62040.97;;;-147.04;39.12
39075;BME280;24826;52.070;20.970;2023-05-09T06:06:43;62050.91;;;-147.04;38.97
39075;BME280;24826;52.070;20.970;2023-05-09T06:09:27;62035.00;;;-147.04;38.97
39075;BME280;24826;52.070;20.970;2023-05-09T06:12:11;62070.81;;;-147.04;38.96
39075;BME280;24826;52.070;20.970;2023-05-09T06:14:59;62044.94;;;-147.04;39.05
39075;BME280;24826;52.070;20.970;2023-05-09T06:17:44;62064.84;;;-147.04;38.92
39075;BME280;24826;52.070;20.970;2023-05-09T06:20:29;62064.84;;;-147.04;39.00
39075;BME280;24826;52.070;20.970;2023-05-09T06:23:13;62112.56;;;-147.04;39.05
39075;BME280;24826;52.070;20.970;2023-05-09T06:25:57;62052.91;;;-147.04;39.01
39075;BME280;24826;52.070;20.970;2023-05-09T06:28:42;62054.91;;;-147.04;38.84
39075;BME280;24826;52.070;20.970;2023-05-09T06:31:27;62056.88;;;-147.04;38.88
39075;BME280;24826;52.070;20.970;2023-05-09T06:34:11;62048.94;;;-147.04;38.89
39075;BME280;24826;52.070;20.970;2023-05-09T06:36:56;62064.84;;;-147.04;38.97
39075;BME280;24826;52.070;20.970;2023-05-09T06:39:40;62068.81;;;-147.04;38.84
39075;BME280;24826;52.070;20.970;2023-05-09T06:42:24;62066.81;;;-147.04;38.92
39075;BME280;24826;52.070;20.970;2023-05-09T06:45:09;62066.81;;;-147.04;38.94
39075;BME280;24826;52.070;20.970;2023-05-09T06:47:54;62088.69;;;-147.04;38.99
39075;BME280;24826;52.070;20.970;2023-05-09T06:50:38;62042.97;;;-147.04;38.90
39075;BME280;24826;52.070;20.970;2023-05-09T06:53:23;62108.59;;;-147.04;38.75
39075;BME280;24826;52.070;20.970;2023-05-09T06:56:07;62088.69;;;-147.04;38.95
39075;BME280;24826;52.070;20.970;2023-05-09T06:58:52;62070.81;;;-147.04;38.95
39075;BME280;24826;52.070;20.970;2023-05-09T07:01:36;62072.78;;;-147.04;38.71
39075;BME280;24826;52.070;20.970;2023-05-09T07:04:21;62078.75;;;-147.04;38.86
39075;BME280;24826;52.070;20.970;2023-05-09T07:07:05;62090.69;;;-147.04;38.89
39075;BME280;24826;52.070;20.970;2023-05-09T07:09:50;62108.59;;;-147.04;38.86
39075;BME280;24826;52.070;20.970;2023-05-09T07:12:34;62122.50;;;-147.04;38.88
39075;BME280;24826;52.070;20.970;2023-05-09T07:15:19;62102.63;;;-147.04;38.95
39075;BME280;24826;52.070;20.970;2023-05-09T07:18:03;62088.69;;;-147.04;38.99
39075;BME280;24826;52.070;20.970;2023-05-09T07:20:48;62154.34;;;-147.04;39.08
39075;BME280;24826;52.070;20.970;2023-05-09T07:23:32;62092.69;;;-147.04;39.13
39075;BME280;24826;52.070;20.970;2023-05-09T07:26:17;62140.41;;;-147.04;39.01
39075;BME280;24826;52.070;20.970;2023-05-09T07:29:01;62110.56;;;-147.04;39.12
39075;BME280;24826;52.070;20.970;2023-05-09T07:31:46;62090.69;;;-147.04;39.14
39075;BME280;24826;52.070;20.970;2023-05-09T07:34:31;62126.50;;;-147.04;39.15
39075;BME280;24826;52.070;20.970;2023-05-09T07:37:15;62100.63;;;-147.04;39.21
39075;BME280;24826;52.070;20.970;2023-05-09T07:40:00;62072.78;;;-147.04;39.26
39075;BME280;24826;52.070;20.970;2023-05-09T07:42:44;62128.47;;;-147.04;39.21
39075;BME280;24826;52.070;20.970;2023-05-09T07:45:32;62130.47;;;-147.04;39.42
39075;BME280;24826;52.070;20.970;2023-05-09T07:48:18;62124.50;;;-147.04;39.25
39075;BME280;24826;52.070;20.970;2023-05-09T07:51:02;62106.59;;;-147.04;39.34
39075;BME280;24826;52.070;20.970;2023-05-09T07:53:46;62092.69;;;-147.04;39.43
39075;BME280;24826;52.070;20.970;2023-05-09T07:56:31;62112.56;;;-147.04;39.42
39075;BME280;24826;52.070;20.970;2023-05-09T07:59:15;62126.50;;;-147.04;39.53
39075;BME280;24826;52.070;20.970;2023-05-09T08:02:00;62138.41;;;-147.04;39.56
39075;BME280;24826;52.070;20.970;2023-05-09T08:04:45;62118.53;;;-147.04;39.42
39075;BME280;24826;52.070;20.970;2023-05-09T08:07:31;62122.50;;;-147.04;39.51
39075;BME280;24826;52.070;20.970;2023-05-09T08:10:15;62180.19;;;-147.04;39.46
39075;BME280;24826;52.070;20.970;2023-05-09T08:13:00;62128.47;;;-147.04;39.64
39075;BME280;24826;52.070;20.970;2023-05-09T08:15:44;62136.44;;;-147.04;39.42
39075;BME280;24826;52.070;20.970;2023-05-09T08:18:28;62170.25;;;-147.04;39.60
39075;BME280;24826;52.070;20.970;2023-05-09T08:21:13;62126.50;;;-147.04;39.63
39075;BME280;24826;52.070;20.970;2023-05-09T08:23:57;62116.53;;;-147.04;39.58
39075;BME280;24826;52.070;20.970;2023-05-09T08:26:41;62108.59;;;-147.04;39.55
39075;BME280;24826;52.070;20.970;2023-05-09T08:29:26;62138.41;;;-147.04;39.58
39075;BME280;24826;52.070;20.970;2023-05-09T08:32:12;62144.38;;;-147.04;39.63
39075;BME280;24826;52.070;20.970;2023-05-09T08:34:57;62140.41;;;-147.04;39.45
39075;BME280;24826;52.070;20.970;2023-05-09T08:37:41;62142.41;;;-147.04;39.59
39075;BME280;24826;52.070;20.970;2023-05-09T08:40:26;62138.41;;;-147.04;39.62
39075;BME280;24826;52.070;20.970;2023-05-09T08:43:11;62116.53;;;-147.04;39.68
39075;BME280;24826;52.070;20.970;2023-05-09T08:46:05;62144.38;;;-147.04;39.74
39075;BME280;24826;52.070;20.970;2023-05-09T08:48:51;62108.59;;;-147.04;39.61
39075;BME280;24826;52.070;20.970;2023-05-09T08:51:36;62120.53;;;-147.04;39.58
39075;BME280;24826;52.070;20.970;2023-05-09T08:54:22;62194.09;;;-147.04;39.73
39075;BME280;24826;52.070;20.970;2023-05-09T08:57:07;62279.63;;;-147.04;39.66
39075;BME280;24826;52.070;20.970;2023-05-09T08:59:54;62110.56;;;-147.04;39.70
39075;BME280;24826;52.070;20.970;2023-05-09T09:02:40;62106.59;;;-147.04;39.73
39075;BME280;24826;52.070;20.970;2023-05-09T09:05:25;62166.25;;;-147.04;39.82
39075;BME280;24826;52.070;20.970;2023-05-09T09:08:10;62130.47;;;-147.04;39.71
39075;BME280;24826;52.070;20.970;2023-05-09T09:10:55;62116.53;;;-147.04;39.58
39075;BME280;24826;52.070;20.970;2023-05-09T09:13:40;62118.53;;;-147.04;39.72
39075;BME280;24826;52.070;20.970;2023-05-09T09:16:28;62120.53;;;-147.04;39.66
39075;BME280;24826;52.070;20.970;2023-05-09T09:19:15;62110.56;;;-147.04;39.66
39075;BME280;24826;52.070;20.970;2023-05-09T09:22:02;62112.56;;;-147.04;39.68
39075;BME280;24826;52.070;20.970;2023-05-09T09:24:47;62162.28;;;-147.04;39.61
39075;BME280;24826;52.070;20.970;2023-05-09T09:27:32;62158.31;;;-147.04;39.61
39075;BME280;24826;52.070;20.970;2023-05-09T09:30:17;62164.28;;;-147.04;39.69
39075;BME280;24826;52.070;20.970;2023-05-09T09:33:05;62136.44;;;-147.04;39.68
39075;BME280;24826;52.070;20.970;2023-05-09T09:35:51;62132.47;;;-147.04;39.55
39075;BME280;24826;52.070;20.970;2023-05-09T09:38:39;62108.59;;;-147.04;39.52
39075;BME280;24826;52.070;20.970;2023-05-09T09:41:34;62116.53;;;-147.04;39.60
39075;BME280;24826;52.070;20.970;2023-05-09T09:44:20;62126.50;;;-147.04;39.77
39075;BME280;24826;52.070;20.970;2023-05-09T09:47:08;62104.63;;;-147.04;39.61
39075;BME280;24826;52.070;20.970;2023-05-09T09:49:53;62158.31;;;-147.04;39.63
39075;BME280;24826;52.070;20.970;2023-05-09T09:55:33;62144.38;;;-147.04;39.61
39075;BME280;24826;52.070;20.970;2023-05-09T09:58:19;62136.44;;;-147.04;39.67
39075;BME280;24826;52.070;20.970;2023-05-09T10:01:10;62128.47;;;-147.04;39.71
39075;BME280;24826;52.070;20.970;2023-05-09T10:03:56;62239.84;;;-147.04;39.60
39075;BME280;24826;52.070;20.970;2023-05-09T10:06:51;62156.31;;;-147.04;39.66
39075;BME280;24826;52.070;20.970;2023-05-09T10:09:36;62118.53;;;-147.04;39.58
39075;BME280;24826;52.070;20.970;2023-05-09T10:12:24;62128.47;;;-147.04;39.61
39075;BME280;24826;52.070;20.970;2023-05-09T10:15:09;62128.47;;;-147.04;39.62
39075;BME280;24826;52.070;20.970;2023-05-09T10:17:59;62138.41;;;-147.04;39.55
39075;BME280;24826;52.070;20.970;2023-05-09T10:20:45;62140.41;;;-147.04;39.53
39075;BME280;24826;52.070;20.970;2023-05-09T10:23:31;62166.25;;;-147.04;39.48
39075;BME280;24826;52.070;20.970;2023-05-09T10:26:22;62152.34;;;-147.04;39.50
39075;BME280;24826;52.070;20.970;2023-05-09T10:29:11;62150.34;;;-147.04;39.53
39075;BME280;24826;52.070;20.970;2023-05-09T10:31:58;62176.22;;;-147.04;39.58
39075;BME280;24826;52.070;20.970;2023-05-09T10:35:03;62162.28;;;-147.04;39.50
39075;BME280;24826;52.070;20.970;2023-05-09T10:37:49;62176.22;;;-147.04;39.49
39075;BME280;24826;52.070;20.970;2023-05-09T10:40:34;62148.38;;;-147.04;39.42
39075;BME280;24826;52.070;20.970;2023-05-09T10:43:19;62182.19;;;-147.04;39.52
39075;BME280;24826;52.070;20.970;2023-05-09T10:46:05;62180.19;;;-147.04;39.53
39075;BME280;24826;52.070;20.970;2023-05-09T10:48:50;62154.34;;;-147.04;39.63
39075;BME280;24826;52.070;20.970;2023-05-09T10:51:35;62160.31;;;-147.04;39.48
39075;BME280;24826;52.070;20.970;2023-05-09T10:54:27;62180.19;;;-147.04;39.61
39075;BME280;24826;52.070;20.970;2023-05-09T10:57:18;62170.25;;;-147.04;39.61
39075;BME280;24826;52.070;20.970;2023-05-09T11:00:03;62152.34;;;-147.04;39.54
39075;BME280;24826;52.070;20.970;2023-05-09T11:03:05;62148.38;;;-147.04;39.69
39075;BME280;24826;52.070;20.970;2023-05-09T11:05:53;62142.41;;;-147.04;39.67
39075;BME280;24826;52.070;20.970;2023-05-09T11:08:41;62190.13;;;-147.04;39.74
39075;BME280;24826;52.070;20.970;2023-05-09T11:11:25;62140.41;;;-147.04;39.81
39075;BME280;24826;52.070;20.970;2023-05-09T11:20:05;62180.19;;;-147.04;39.72
39075;BME280;24826;52.070;20.970;2023-05-09T11:22:51;62156.31;;;-147.04;39.74
39075;BME280;24826;52.070;20.970;2023-05-09T11:25:38;62194.09;;;-147.04;39.69
39075;BME280;24826;52.070;20.970;2023-05-09T11:28:29;62168.25;;;-147.04;39.82
39075;BME280;24826;52.070;20.970;2023-05-09T11:31:17;62148.38;;;-147.04;39.75
39075;BME280;24826;52.070;20.970;2023-05-09T11:34:01;62180.19;;;-147.04;39.71
39075;BME280;24826;52.070;20.970;2023-05-09T11:36:48;62138.41;;;-147.04;39.79
39075;BME280;24826;52.070;20.970;2023-05-09T11:39:32;62174.22;;;-147.04;39.77
39075;BME280;24826;52.070;20.970;2023-05-09T11:42:17;62148.38;;;-147.04;39.87
39075;BME280;24826;52.070;20.970;2023-05-09T11:45:02;62160.31;;;-147.04;39.85
39075;BME280;24826;52.070;20.970;2023-05-09T11:47:49;62168.25;;;-147.04;39.74
39075;BME280;24826;52.070;20.970;2023-05-09T11:50:33;62176.22;;;-147.04;39.82
39075;BME280;24826;52.070;20.970;2023-05-09T11:53:17;62182.19;;;-147.04;39.98
39075;BME280;24826;52.070;20.970;2023-05-09T11:56:03;62160.31;;;-147.04;39.81
39075;BME280;24826;52.070;20.970;2023-05-09T11:58:51;62190.13;;;-147.04;39.90
39075;BME280;24826;52.070;20.970;2023-05-09T12:12:32;62188.13;;;-147.04;39.83
39075;BME280;24826;52.070;20.970;2023-05-09T12:15:17;62182.19;;;-147.04;39.66
39075;BME280;24826;52.070;20.970;2023-05-09T12:18:04;62198.09;;;-147.04;39.77
39075;BME280;24826;52.070;20.970;2023-05-09T12:20:50;62208.03;;;-147.04;39.68
39075;BME280;24826;52.070;20.970;2023-05-09T12:23:34;62178.19;;;-147.04;39.87
39075;BME280;24826;52.070;20.970;2023-05-09T12:26:20;62204.06;;;-147.04;39.74
39075;BME280;24826;52.070;20.970;2023-05-09T12:29:05;62164.28;;;-147.04;39.77
39075;BME280;24826;52.070;20.970;2023-05-09T12:31:51;62198.09;;;-147.04;39.83
39075;BME280;24826;52.070;20.970;2023-05-09T12:34:36;62156.31;;;-147.04;39.75
39075;BME280;24826;52.070;20.970;2023-05-09T12:37:21;62172.22;;;-147.04;39.79
39075;BME280;24826;52.070;20.970;2023-05-09T12:40:11;62186.16;;;-147.04;39.77
39075;BME280;24826;52.070;20.970;2023-05-09T12:42:56;62215.97;;;-147.04;39.55
39075;BME280;24826;52.070;20.970;2023-05-09T12:45:51;62174.22;;;-147.04;39.43
39075;BME280;24826;52.070;20.970;2023-05-09T12:48:37;62204.06;;;-147.04;39.58
39075;BME280;24826;52.070;20.970;2023-05-09T12:51:22;62184.16;;;-147.04;39.15
39075;BME280;24826;52.070;20.970;2023-05-09T12:54:06;62194.09;;;-147.04;39.44
39075;BME280;24826;52.070;20.970;2023-05-09T12:56:56;62192.13;;;-147.04;39.15
39075;BME280;24826;52.070;20.970;2023-05-09T12:59:42;62188.13;;;-147.04;39.21
39075;BME280;24826;52.070;20.970;2023-05-09T13:02:26;62196.09;;;-147.04;39.13
39075;BME280;24826;52.070;20.970;2023-05-09T13:05:16;62198.09;;;-147.04;39.15
39075;BME280;24826;52.070;20.970;2023-05-09T13:08:01;62182.19;;;-147.04;39.30
39075;BME280;24826;52.070;20.970;2023-05-09T13:10:45;62204.06;;;-147.04;38.99
39075;BME280;24826;52.070;20.970;2023-05-09T13:13:30;62152.34;;;-147.04;38.94
39075;BME280;24826;52.070;20.970;2023-05-09T13:16:14;62168.25;;;-147.04;38.91
39075;BME280;24826;52.070;20.970;2023-05-09T13:18:59;62180.19;;;-147.04;39.04
39075;BME280;24826;52.070;20.970;2023-05-09T13:21:44;62200.06;;;-147.04;38.98
39075;BME280;24826;52.070;20.970;2023-05-09T13:24:28;62140.41;;;-147.04;38.87
39075;BME280;24826;52.070;20.970;2023-05-09T13:27:13;62188.13;;;-147.04;38.81
39075;BME280;24826;52.070;20.970;2023-05-09T13:29:58;62192.13;;;-147.04;38.94
39075;BME280;24826;52.070;20.970;2023-05-09T13:32:42;62148.38;;;-147.04;39.04
39075;BME280;24826;52.070;20.970;2023-05-09T13:35:27;62166.25;;;-147.04;38.89
39075;BME280;24826;52.070;20.970;2023-05-09T13:38:11;62162.28;;;-147.04;38.90
39075;BME280;24826;52.070;20.970;2023-05-09T13:40:55;62158.31;;;-147.04;38.89
39075;BME280;24826;52.070;20.970;2023-05-09T13:43:40;62146.38;;;-147.04;38.81
39075;BME280;24826;52.070;20.970;2023-05-09T13:46:25;62172.22;;;-147.04;38.99
39075;BME280;24826;52.070;20.970;2023-05-09T13:49:09;62140.41;;;-147.04;38.94
39075;BME280;24826;52.070;20.970;2023-05-09T13:51:54;62152.34;;;-147.04;39.02
39075;BME280;24826;52.070;20.970;2023-05-09T13:54:39;62156.31;;;-147.04;39.18
39075;BME280;24826;52.070;20.970;2023-05-09T13:57:23;62200.06;;;-147.04;39.07
39075;BME280;24826;52.070;20.970;2023-05-09T14:00:09;62192.13;;;-147.04;39.23
39075;BME280;24826;52.070;20.970;2023-05-09T14:02:54;62180.19;;;-147.04;39.08
39075;BME280;24826;52.070;20.970;2023-05-09T14:05:39;62182.19;;;-147.04;39.05
39075;BME280;24826;52.070;20.970;2023-05-09T14:08:23;62150.34;;;-147.04;39.22
39075;BME280;24826;52.070;20.970;2023-05-09T14:11:07;62196.09;;;-147.04;39.08
39075;BME280;24826;52.070;20.970;2023-05-09T14:13:52;62176.22;;;-147.04;39.06
39075;BME280;24826;52.070;20.970;2023-05-09T14:16:37;62186.16;;;-147.04;39.20
39075;BME280;24826;52.070;20.970;2023-05-09T14:19:22;62186.16;;;-147.04;39.03
39075;BME280;24826;52.070;20.970;2023-05-09T14:22:06;62136.44;;;-147.04;39.16
39075;BME280;24826;52.070;20.970;2023-05-09T14:24:50;62140.41;;;-147.04;39.02
39075;BME280;24826;52.070;20.970;2023-05-09T14:27:35;62160.31;;;-147.04;38.78